Time;durP1;ratioP1;P1;durP2;ratioP2;P2;SDS_P1;SDS_P2;PMS_P1;PMS_P2;Temp;Humidity;BMP_temperature;BMP_pressure;BME280_temperature;BME280_humidity;BME280_pressure;Samples;Min_cycle;Max_cycle;Signal;HPM_P1;HPM_P2
2023/08/31 00:01:13;;;;;;;2.63;1.80;;;14.80;99.90;;;;;;5006469;28;20216;-54
2023/08/31 00:03:44;;;;;;;7.65;1.90;;;14.70;99.90;;;;;;5001987;28;20673;-54
2023/08/31 00:06:12;;;;;;;3.08;2.03;;;14.80;99.90;;;;;;4998260;28;20763;-55
2023/08/31 00:08:40;;;;;;;6.90;2.00;;;14.80;99.90;;;;;;5008611;28;20227;-55
2023/08/31 00:11:08;;;;;;;2.92;2.00;;;14.70;99.90;;;;;;4997460;28;20227;-54
2023/08/31 00:13:36;;;;;;;1.88;1.77;;;14.70;99.90;;;;;;5003394;28;20668;-55
2023/08/31 00:16:05;;;;;;;5.32;1.70;;;14.70;99.90;;;;;;5004486;28;20234;-54
2023/08/31 00:18:33;;;;;;;2.42;2.25;;;14.70;99.90;;;;;;4995723;28;20291;-55
2023/08/31 00:21:03;;;;;;;8.50;2.45;;;14.70;99.90;;;;;;5007747;28;20307;-54
2023/08/31 00:23:31;;;;;;;3.22;2.30;;;14.70;99.90;;;;;;5000419;28;20195;-55
2023/08/31 00:25:59;;;;;;;3.65;2.20;;;14.70;99.90;;;;;;4999695;28;20266;-56
2023/08/31 00:28:27;;;;;;;2.40;2.13;;;14.60;99.90;;;;;;5007486;28;20330;-56
2023/08/31 00:30:55;;;;;;;5.03;2.42;;;14.60;99.90;;;;;;4995666;28;20282;-56
2023/08/31 00:33:23;;;;;;;4.63;2.25;;;14.60;99.90;;;;;;5004761;28;20283;-55
2023/08/31 00:35:51;;;;;;;3.97;2.20;;;14.60;99.90;;;;;;5002564;28;20297;-54
2023/08/31 00:38:20;;;;;;;3.30;2.60;;;14.60;99.90;;;;;;4996921;28;20811;-56
2023/08/31 00:40:48;;;;;;;6.40;2.50;;;14.50;99.90;;;;;;5008081;28;20306;-54
2023/08/31 00:43:17;;;;;;;5.47;2.33;;;14.50;99.90;;;;;;4998227;28;20231;-55
2023/08/31 00:45:45;;;;;;;2.45;2.25;;;14.50;99.90;;;;;;5001516;28;20278;-54
2023/08/31 00:48:13;;;;;;;2.88;2.33;;;14.50;99.90;;;;;;5000674;28;20231;-54
2023/08/31 00:50:41;;;;;;;4.35;2.80;;;14.50;99.90;;;;;;5008211;28;20432;-55
2023/08/31 00:53:09;;;;;;;3.13;2.28;;;14.40;99.90;;;;;;4997119;28;20281;-55
2023/08/31 00:55:39;;;;;;;5.50;2.42;;;14.40;99.90;;;;;;5001726;28;20212;-54
2023/08/31 00:58:08;;;;;;;5.25;2.80;;;14.40;99.90;;;;;;5004699;28;20648;-54
2023/08/31 01:00:41;;;;;;;8.98;3.08;;;14.30;99.90;;;;;;4996628;28;20314;-55
2023/08/31 01:03:13;;;;;;;2.90;2.55;;;14.30;99.90;;;;;;5011193;28;20203;-54
2023/08/31 01:05:46;;;;;;;6.30;2.85;;;14.20;99.90;;;;;;5000778;28;20682;-55
2023/08/31 01:08:20;;;;;;;7.95;2.85;;;14.20;99.90;;;;;;5011336;28;20878;-54
2023/08/31 01:11:00;;;;;;;3.55;2.78;;;14.10;99.90;;;;;;4995298;28;20207;-54
2023/08/31 01:13:28;;;;;;;5.97;2.78;;;14.10;99.90;;;;;;5009762;28;20269;-54
2023/08/31 01:15:57;;;;;;;2.75;2.50;;;14.10;99.90;;;;;;5011137;28;20211;-54
2023/08/31 01:18:25;;;;;;;7.95;3.17;;;14.10;99.90;;;;;;5010813;28;20795;-56
2023/08/31 01:20:57;;;;;;;2.65;2.42;;;14.10;99.90;;;;;;4995137;28;20306;-55
2023/08/31 01:23:28;;;;;;;4.13;3.05;;;14.10;99.90;;;;;;5003904;28;20672;-55
2023/08/31 01:25:57;;;;;;;3.20;2.63;;;14.10;99.90;;;;;;5002939;28;20199;-54
2023/08/31 01:28:26;;;;;;;3.00;2.35;;;14.10;99.90;;;;;;4995436;28;20238;-55
2023/08/31 01:30:54;;;;;;;2.83;2.63;;;14.10;99.90;;;;;;5007709;28;20300;-54
2023/08/31 01:33:21;;;;;;;4.32;2.90;;;14.10;99.90;;;;;;5007065;28;20203;-55
2023/08/31 01:35:52;;;;;;;5.90;2.53;;;14.00;99.90;;;;;;5004485;28;20204;-54
2023/08/31 01:38:22;;;;;;;7.10;2.95;;;14.00;99.90;;;;;;5010978;28;20231;-53
2023/08/31 01:40:53;;;;;;;3.05;2.83;;;13.90;99.90;;;;;;4994797;28;20243;-55
2023/08/31 01:43:22;;;;;;;4.28;2.67;;;13.90;99.90;;;;;;5003671;28;20303;-55
2023/08/31 01:45:50;;;;;;;4.93;3.10;;;13.80;99.90;;;;;;5001807;28;20207;-55
2023/08/31 01:48:18;;;;;;;4.32;3.10;;;13.80;99.90;;;;;;5002364;28;20223;-54
2023/08/31 01:50:46;;;;;;;2.95;2.70;;;13.80;99.90;;;;;;4994726;28;20287;-55
2023/08/31 01:53:14;;;;;;;3.83;3.00;;;13.80;99.90;;;;;;5011080;28;20227;-54
2023/08/31 01:55:42;;;;;;;4.05;3.28;;;13.70;99.90;;;;;;5000909;28;20240;-56
2023/08/31 01:58:10;;;;;;;5.60;2.95;;;13.70;99.90;;;;;;5003510;28;20241;-56
2023/08/31 02:00:39;;;;;;;3.58;3.05;;;13.70;99.90;;;;;;5005825;28;20204;-56
2023/08/31 02:03:08;;;;;;;8.18;2.92;;;13.80;99.90;;;;;;5002714;28;20235;-55
2023/08/31 02:05:36;;;;;;;3.38;2.90;;;13.80;99.90;;;;;;5010563;28;20212;-55
2023/08/31 02:08:04;;;;;;;3.40;3.10;;;13.80;99.90;;;;;;4999408;28;20235;-55
2023/08/31 02:10:32;;;;;;;3.53;3.05;;;13.80;99.90;;;;;;5010514;28;20666;-55
2023/08/31 02:13:00;;;;;;;3.15;2.95;;;13.80;99.90;;;;;;5014439;28;20262;-54
2023/08/31 02:15:28;;;;;;;3.75;3.20;;;13.80;99.90;;;;;;5013994;28;20203;-54
2023/08/31 02:17:57;;;;;;;8.35;3.17;;;13.80;99.90;;;;;;5002619;28;20223;-54
2023/08/31 02:20:26;;;;;;;4.55;2.92;;;13.80;99.90;;;;;;5009804;28;20258;-55
2023/08/31 02:22:55;;;;;;;8.93;3.13;;;13.80;99.90;;;;;;4997548;28;20219;-55
2023/08/31 02:25:23;;;;;;;3.53;3.22;;;13.80;99.90;;;;;;5006803;28;20291;-55
2023/08/31 02:27:51;;;;;;;6.32;2.88;;;13.80;99.90;;;;;;5005285;28;20277;-54
2023/08/31 02:30:19;;;;;;;3.60;2.70;;;13.90;99.90;;;;;;4999174;28;20246;-54
2023/08/31 02:32:47;;;;;;;6.22;3.28;;;13.80;99.90;;;;;;5010448;28;20203;-54
2023/08/31 02:35:17;;;;;;;6.68;3.33;;;13.90;99.90;;;;;;4999710;28;20663;-56
2023/08/31 02:37:44;;;;;;;4.90;3.05;;;13.90;99.90;;;;;;5003992;28;20204;-55
2023/08/31 02:40:12;;;;;;;7.53;3.22;;;13.90;99.90;;;;;;5007602;28;20677;-55
2023/08/31 02:42:40;;;;;;;4.22;3.50;;;13.80;99.90;;;;;;4997431;28;20223;-54
2023/08/31 02:45:09;;;;;;;5.78;3.28;;;13.80;99.90;;;;;;5008357;28;20204;-53
2023/08/31 02:47:37;;;;;;;9.05;3.10;;;13.80;99.90;;;;;;5002776;28;20327;-54
2023/08/31 02:50:06;;;;;;;5.22;3.40;;;13.80;99.90;;;;;;5006353;28;20231;-55
2023/08/31 02:52:36;;;;;;;3.67;3.35;;;13.80;99.90;;;;;;4997518;28;20200;-55
2023/08/31 02:55:04;;;;;;;7.45;3.75;;;13.70;99.90;;;;;;5012998;28;20211;-55
2023/08/31 02:57:32;;;;;;;5.65;3.65;;;13.70;99.90;;;;;;5013584;28;20199;-54
2023/08/31 03:00:00;;;;;;;6.10;3.45;;;13.70;99.90;;;;;;5001176;28;20294;-54
2023/08/31 03:02:28;;;;;;;4.78;2.83;;;13.80;99.90;;;;;;5009254;28;20220;-56
2023/08/31 03:04:56;;;;;;;3.55;2.92;;;13.80;99.90;;;;;;4996588;28;20679;-55
2023/08/31 03:07:24;;;;;;;5.75;3.28;;;13.80;99.90;;;;;;5006247;28;20204;-55
2023/08/31 03:09:54;;;;;;;7.15;3.03;;;13.80;99.90;;;;;;5004299;28;20328;-54
2023/08/31 03:12:21;;;;;;;6.20;3.42;;;13.80;99.90;;;;;;4998407;28;20298;-54
2023/08/31 03:14:49;;;;;;;4.30;3.83;;;13.80;99.90;;;;;;5009386;28;20293;-54
2023/08/31 03:17:17;;;;;;;4.90;3.83;;;13.80;99.90;;;;;;4999545;28;20202;-54
2023/08/31 03:19:45;;;;;;;4.13;3.63;;;13.80;99.90;;;;;;5002843;28;20311;-56
2023/08/31 03:22:13;;;;;;;6.65;3.25;;;13.70;99.90;;;;;;5006973;28;20255;-55
2023/08/31 03:24:41;;;;;;;7.57;3.30;;;13.70;99.90;;;;;;4996346;28;20263;-56
2023/08/31 03:27:10;;;;;;;4.07;3.67;;;13.60;99.90;;;;;;5007938;28;20196;-55
2023/08/31 03:29:39;;;;;;;3.75;3.05;;;13.60;99.90;;;;;;5001754;28;20227;-54
2023/08/31 03:32:07;;;;;;;3.78;3.45;;;13.60;99.90;;;;;;5000030;28;20200;-54
2023/08/31 03:34:35;;;;;;;8.38;3.55;;;13.50;99.90;;;;;;5009141;28;20211;-55
2023/08/31 03:37:03;;;;;;;4.45;2.83;;;13.60;99.90;;;;;;4997442;28;20195;-55
2023/08/31 03:39:31;;;;;;;3.80;3.50;;;13.60;99.90;;;;;;5004492;28;20259;-54
2023/08/31 03:42:00;;;;;;;6.30;3.58;;;13.60;99.90;;;;;;5004154;28;20266;-55
2023/08/31 03:44:29;;;;;;;4.03;3.33;;;13.50;99.90;;;;;;4996492;28;20235;-54
2023/08/31 03:46:57;;;;;;;5.55;3.33;;;13.50;99.90;;;;;;4996309;28;20231;-55
2023/08/31 03:49:25;;;;;;;5.65;3.53;;;13.50;99.90;;;;;;5004745;28;20251;-54
2023/08/31 03:51:53;;;;;;;3.72;3.45;;;13.50;99.90;;;;;;5001543;28;20647;-54
2023/08/31 03:54:21;;;;;;;4.20;3.72;;;13.50;99.90;;;;;;5007272;28;20231;-54
2023/08/31 03:56:49;;;;;;;4.28;3.90;;;13.40;99.90;;;;;;4995715;28;20283;-54
2023/08/31 03:59:17;;;;;;;3.50;3.15;;;13.40;99.90;;;;;;5005786;28;20330;-54
2023/08/31 04:01:46;;;;;;;4.55;3.28;;;13.40;99.90;;;;;;5007552;28;20698;-54
2023/08/31 04:04:14;;;;;;;4.43;3.63;;;13.40;99.90;;;;;;5003705;28;20212;-55
2023/08/31 04:06:42;;;;;;;4.13;3.72;;;13.40;99.90;;;;;;5008630;28;20290;-55
2023/08/31 04:09:10;;;;;;;7.30;3.85;;;13.40;99.90;;;;;;4997370;28;20254;-54
2023/08/31 04:11:38;;;;;;;3.42;3.15;;;13.30;99.90;;;;;;5003315;28;20232;-56
2023/08/31 04:14:06;;;;;;;7.50;3.70;;;13.30;99.90;;;;;;5004903;28;20745;-55
2023/08/31 04:16:33;;;;;;;5.00;3.67;;;13.20;99.90;;;;;;4995504;28;20236;-54
2023/08/31 04:19:03;;;;;;;7.13;4.07;;;13.20;99.90;;;;;;5007548;28;20734;-54
2023/08/31 04:21:31;;;;;;;4.68;3.63;;;13.20;99.90;;;;;;5000429;28;20195;-54
2023/08/31 04:24:00;;;;;;;4.22;3.80;;;13.20;99.90;;;;;;4999649;28;20314;-54
2023/08/31 04:26:29;;;;;;;6.97;3.60;;;13.20;99.90;;;;;;5008012;28;20281;-55
2023/08/31 04:28:57;;;;;;;6.70;3.70;;;13.20;99.90;;;;;;5008146;28;20234;-54
2023/08/31 04:31:25;;;;;;;4.28;3.45;;;13.20;99.90;;;;;;4998840;28;20199;-56
2023/08/31 04:33:54;;;;;;;9.60;4.13;;;13.20;99.90;;;;;;4999469;28;20258;-55
2023/08/31 04:36:23;;;;;;;5.45;3.47;;;13.20;99.90;;;;;;5006639;28;20270;-55
2023/08/31 04:38:51;;;;;;;5.60;3.55;;;13.10;99.90;;;;;;4995492;28;20263;-56
2023/08/31 04:41:19;;;;;;;4.35;3.53;;;13.10;99.90;;;;;;5005249;28;20204;-55
2023/08/31 04:43:48;;;;;;;4.18;3.42;;;13.10;99.90;;;;;;5002217;28;20314;-57
2023/08/31 04:46:16;;;;;;;5.03;3.70;;;13.10;99.90;;;;;;4997003;28;20295;-56
2023/08/31 04:48:44;;;;;;;3.53;3.25;;;13.10;99.90;;;;;;5002058;28;20248;-57
2023/08/31 04:51:34;;;;;;;7.85;4.15;;;13.10;99.90;;;;;;5006094;28;20291;-57
2023/08/31 04:54:02;;;;;;;6.25;3.50;;;13.00;99.90;;;;;;5003975;28;20250;-56
2023/08/31 04:56:31;;;;;;;7.97;4.00;;;13.00;99.90;;;;;;4995217;28;20291;-57
2023/08/31 04:58:59;;;;;;;7.50;3.72;;;13.00;99.90;;;;;;5011184;28;20273;-56
2023/08/31 05:01:27;;;;;;;3.75;3.55;;;13.00;99.90;;;;;;5003795;28;20207;-56
2023/08/31 05:03:55;;;;;;;4.65;3.80;;;13.00;99.90;;;;;;5003040;28;20281;-56
2023/08/31 05:06:23;;;;;;;6.72;3.38;;;13.00;99.90;;;;;;4996054;28;20232;-57
2023/08/31 05:08:52;;;;;;;8.77;3.92;;;12.90;99.90;;;;;;5007802;28;20263;-56
2023/08/31 05:11:20;;;;;;;7.13;3.67;;;12.90;99.90;;;;;;5001826;28;20203;-57
2023/08/31 05:13:48;;;;;;;7.68;4.50;;;12.90;99.90;;;;;;5010874;28;20203;-57
2023/08/31 05:16:16;;;;;;;5.45;3.85;;;12.90;99.90;;;;;;5010375;28;20302;-57
2023/08/31 05:18:44;;;;;;;6.00;3.53;;;12.90;99.90;;;;;;5011062;28;20319;-57
2023/08/31 05:21:12;;;;;;;8.90;3.90;;;12.80;99.90;;;;;;5010899;28;20290;-57
2023/08/31 05:23:40;;;;;;;8.25;4.00;;;12.80;99.90;;;;;;5011065;28;20221;-56
2023/08/31 05:26:10;;;;;;;6.15;3.92;;;12.80;99.90;;;;;;5004293;28;20215;-56
2023/08/31 05:28:38;;;;;;;5.18;3.40;;;12.80;99.90;;;;;;5008256;28;20981;-56
2023/08/31 05:31:06;;;;;;;4.13;3.70;;;12.80;99.90;;;;;;5006536;28;20227;-58
2023/08/31 05:33:34;;;;;;;4.95;3.63;;;12.90;99.90;;;;;;5000044;28;20199;-58
2023/08/31 05:36:03;;;;;;;8.10;4.38;;;12.90;99.90;;;;;;5006983;28;20277;-58
2023/08/31 05:38:31;;;;;;;4.18;3.75;;;12.90;99.90;;;;;;5005653;28;20315;-58
2023/08/31 05:41:07;;;;;;;4.50;4.10;;;12.90;99.90;;;;;;5003234;28;20257;-59
2023/08/31 05:43:36;;;;;;;6.32;3.45;;;12.90;99.90;;;;;;5005755;28;20295;-58
2023/08/31 05:46:04;;;;;;;5.40;4.38;;;13.00;99.90;;;;;;5011304;28;20246;-59
2023/08/31 05:48:32;;;;;;;7.60;4.50;;;13.00;99.90;;;;;;5012000;28;20312;-59
2023/08/31 05:51:00;;;;;;;7.53;3.97;;;13.00;99.90;;;;;;5009666;28;20200;-59
2023/08/31 05:53:28;;;;;;;6.63;4.22;;;13.00;99.90;;;;;;5012476;28;20704;-59
2023/08/31 05:56:03;;;;;;;6.32;3.60;;;13.00;99.90;;;;;;5013592;28;20203;-59
2023/08/31 05:58:32;;;;;;;6.53;4.15;;;13.00;99.90;;;;;;5013492;28;20257;-59
2023/08/31 06:01:02;;;;;;;9.13;4.65;;;13.00;99.90;;;;;;5011678;28;20207;-59
2023/08/31 06:03:30;;;;;;;4.07;3.78;;;13.10;99.90;;;;;;5006574;28;20727;-60
2023/08/31 06:05:59;;;;;;;8.95;3.97;;;13.10;99.90;;;;;;5013298;28;20218;-59
2023/08/31 06:08:26;;;;;;;6.50;3.47;;;13.20;99.90;;;;;;5012902;28;20231;-60
2023/08/31 06:10:54;;;;;;;4.50;4.05;;;13.30;99.90;;;;;;5012620;28;20990;-59
2023/08/31 06:13:23;;;;;;;12.02;3.90;;;13.30;99.90;;;;;;5010259;28;20192;-59
2023/08/31 06:15:50;;;;;;;6.10;3.90;;;13.40;99.90;;;;;;5002983;28;20605;-59
2023/08/31 06:18:20;;;;;;;8.43;4.03;;;13.50;99.90;;;;;;5010070;28;20233;-60
2023/08/31 06:20:49;;;;;;;6.15;3.85;;;13.50;99.90;;;;;;5011802;28;20290;-60
2023/08/31 06:23:17;;;;;;;5.07;4.00;;;13.60;99.90;;;;;;5000704;28;20215;-59
2023/08/31 06:25:46;;;;;;;8.20;3.78;;;13.60;99.90;;;;;;5011981;28;20239;-60
2023/08/31 06:28:14;;;;;;;4.25;3.40;;;13.60;99.90;;;;;;5004872;28;20307;-60
2023/08/31 06:30:46;;;;;;;4.03;3.28;;;13.60;99.90;;;;;;5010149;28;20298;-60
2023/08/31 06:33:14;;;;;;;5.45;3.92;;;13.70;99.90;;;;;;5012508;28;20250;-59
2023/08/31 06:35:45;;;;;;;3.75;3.40;;;13.80;99.90;;;;;;5011767;28;20211;-59
2023/08/31 06:38:13;;;;;;;5.10;3.35;;;13.80;99.90;;;;;;5010977;28;20286;-60
2023/08/31 06:40:42;;;;;;;7.25;3.47;;;13.90;99.90;;;;;;5012640;28;20290;-59
2023/08/31 06:43:10;;;;;;;7.47;3.88;;;13.90;99.90;;;;;;5013347;28;20295;-60
2023/08/31 06:45:40;;;;;;;3.83;3.20;;;14.00;99.90;;;;;;5000202;28;20214;-60
2023/08/31 06:48:08;;;;;;;5.32;2.88;;;14.00;99.90;;;;;;5004518;28;20203;-61
2023/08/31 06:50:36;;;;;;;6.47;3.25;;;14.00;99.90;;;;;;4997620;28;20291;-59
2023/08/31 06:53:06;;;;;;;5.03;3.28;;;14.10;99.90;;;;;;5011618;28;20242;-60
2023/08/31 06:55:34;;;;;;;5.78;3.53;;;14.20;99.90;;;;;;5010217;28;20202;-59
2023/08/31 06:58:03;;;;;;;8.00;3.80;;;14.30;99.90;;;;;;5011205;28;20203;-59
2023/08/31 07:00:32;;;;;;;4.20;3.22;;;14.40;99.90;;;;;;5010199;28;20261;-60
2023/08/31 07:03:00;;;;;;;4.60;3.15;;;14.50;99.90;;;;;;5006802;28;20208;-60
2023/08/31 07:05:29;;;;;;;4.65;3.08;;;14.50;99.90;;;;;;5010757;28;20335;-59
2023/08/31 07:07:58;;;;;;;3.40;2.75;;;14.50;99.90;;;;;;4998312;28;20590;-59
2023/08/31 07:10:27;;;;;;;4.13;2.63;;;14.60;99.90;;;;;;5007485;28;20207;-59
2023/08/31 07:12:55;;;;;;;4.40;2.78;;;14.70;99.90;;;;;;4996035;28;20359;-60
2023/08/31 07:15:23;;;;;;;5.32;2.83;;;14.80;99.90;;;;;;5005016;28;20197;-60
2023/08/31 07:17:51;;;;;;;4.90;2.53;;;14.90;99.90;;;;;;5004355;28;20558;-61
2023/08/31 07:20:19;;;;;;;8.57;3.00;;;15.00;99.90;;;;;;4998391;28;20282;-60
2023/08/31 07:22:47;;;;;;;7.20;2.28;;;15.10;99.90;;;;;;5009418;28;20207;-60
2023/08/31 07:25:15;;;;;;;10.25;2.97;;;15.20;99.90;;;;;;4998544;28;20750;-60
2023/08/31 07:27:44;;;;;;;4.57;2.65;;;15.20;99.90;;;;;;5003296;28;20207;-60
2023/08/31 07:30:12;;;;;;;5.50;2.60;;;15.20;99.90;;;;;;5006576;28;20269;-60
2023/08/31 07:32:40;;;;;;;5.95;2.95;;;15.30;99.90;;;;;;4996695;28;20730;-60
2023/08/31 07:35:09;;;;;;;6.03;2.47;;;15.40;99.90;;;;;;5007431;28;20196;-60
2023/08/31 07:37:37;;;;;;;5.93;2.60;;;15.30;99.90;;;;;;5001805;28;20200;-60
2023/08/31 07:40:09;;;;;;;5.63;2.45;;;15.30;99.90;;;;;;4999734;28;20227;-60
2023/08/31 07:42:38;;;;;;;4.10;2.38;;;15.40;99.90;;;;;;5009222;28;20675;-61
2023/08/31 07:45:08;;;;;;;4.78;2.55;;;15.30;99.90;;;;;;4997165;28;20281;-60
2023/08/31 07:47:36;;;;;;;7.28;2.47;;;15.40;99.90;;;;;;5003992;28;20200;-60
2023/08/31 07:50:06;;;;;;;6.22;2.25;;;15.40;99.90;;;;;;4999508;28;20711;-60
2023/08/31 07:52:34;;;;;;;4.70;2.25;;;15.40;99.90;;;;;;5009683;28;20242;-60
2023/08/31 07:55:02;;;;;;;7.57;2.38;;;15.40;99.90;;;;;;5007840;28;20200;-60
2023/08/31 07:57:30;;;;;;;5.18;2.63;;;15.40;99.90;;;;;;5000788;28;20667;-60
2023/08/31 07:59:58;;;;;;;5.38;2.17;;;15.50;99.90;;;;;;5000387;28;20374;-60
2023/08/31 08:02:27;;;;;;;3.80;2.20;;;15.60;99.90;;;;;;5008219;28;20230;-60
2023/08/31 08:04:55;;;;;;;6.82;2.20;;;15.60;99.90;;;;;;4995168;28;20223;-60
2023/08/31 08:07:23;;;;;;;9.20;1.98;;;15.70;99.90;;;;;;5003486;28;20204;-60
2023/08/31 08:09:51;;;;;;;6.13;1.95;;;15.70;99.90;;;;;;5002779;28;20285;-60
2023/08/31 08:12:19;;;;;;;2.92;2.00;;;15.70;99.90;;;;;;5012056;28;20207;-60
2023/08/31 08:14:47;;;;;;;3.83;1.50;;;15.70;99.90;;;;;;4995376;28;20208;-60
2023/08/31 08:17:15;;;;;;;6.65;2.47;;;15.80;99.90;;;;;;5005801;28;20274;-59
2023/08/31 08:19:44;;;;;;;6.32;1.92;;;15.90;99.90;;;;;;5001937;28;20223;-61
2023/08/31 08:22:12;;;;;;;6.07;2.30;;;15.90;99.90;;;;;;4998328;28;20254;-60
2023/08/31 08:24:40;;;;;;;4.30;1.90;;;16.00;99.90;;;;;;5007765;28;20219;-60
2023/08/31 08:27:10;;;;;;;4.90;2.30;;;16.10;99.90;;;;;;4999705;28;20230;-59
2023/08/31 08:29:38;;;;;;;5.38;1.80;;;16.20;99.90;;;;;;5002350;28;20232;-59
2023/08/31 08:32:08;;;;;;;5.90;1.95;;;16.30;99.90;;;;;;5005020;28;20226;-60
2023/08/31 08:34:36;;;;;;;9.63;2.05;;;16.30;99.90;;;;;;4995096;28;20254;-59
2023/08/31 08:37:05;;;;;;;3.00;1.77;;;16.40;99.90;;;;;;5007052;28;20196;-60
2023/08/31 08:39:33;;;;;;;4.45;1.77;;;16.60;99.90;;;;;;5000226;28;20219;-60
2023/08/31 08:42:01;;;;;;;6.63;1.75;;;16.70;99.90;;;;;;4998968;28;20204;-60
2023/08/31 08:44:32;;;;;;;4.72;1.70;;;16.90;99.90;;;;;;5005225;28;20671;-59
2023/08/31 08:47:00;;;;;;;8.70;2.08;;;17.00;99.90;;;;;;5005627;28;20628;-60
2023/08/31 08:49:28;;;;;;;5.60;1.65;;;17.10;99.90;;;;;;5011407;28;20234;-60
2023/08/31 08:51:56;;;;;;;7.00;1.85;;;17.30;99.90;;;;;;5011241;28;20696;-60
2023/08/31 08:54:25;;;;;;;4.57;1.40;;;17.40;99.90;;;;;;4996443;28;20208;-60
2023/08/31 08:56:53;;;;;;;4.30;1.67;;;17.40;99.90;;;;;;5008763;28;20239;-60
2023/08/31 08:59:21;;;;;;;4.90;1.52;;;17.30;99.90;;;;;;5010060;28;20659;-60
2023/08/31 09:01:49;;;;;;;4.35;2.00;;;17.40;99.90;;;;;;5004547;28;20208;-60
2023/08/31 09:04:17;;;;;;;5.35;1.70;;;17.50;99.90;;;;;;5009196;28;20207;-60
2023/08/31 09:06:45;;;;;;;4.55;1.30;;;17.70;99.90;;;;;;5010120;28;20211;-60
2023/08/31 09:09:12;;;;;;;4.88;1.50;;;17.80;99.90;;;;;;5009136;28;20226;-60
2023/08/31 09:11:42;;;;;;;4.90;1.80;;;17.80;99.90;;;;;;5010434;28;20242;-60
2023/08/31 09:14:16;;;;;;;5.60;1.85;;;17.80;99.90;;;;;;5011000;28;20246;-61
2023/08/31 09:16:45;;;;;;;5.35;1.58;;;17.70;99.90;;;;;;5009524;28;20210;-61
2023/08/31 09:19:19;;;;;;;2.92;1.20;;;17.50;99.90;;;;;;5014315;28;20646;-60
2023/08/31 09:21:48;;;;;;;5.20;1.33;;;17.50;99.90;;;;;;5009405;28;20202;-61
2023/08/31 09:24:17;;;;;;;2.90;1.25;;;17.40;99.90;;;;;;5014692;28;20207;-59
2023/08/31 09:26:48;;;;;;;3.92;1.25;;;17.40;99.90;;;;;;5013123;28;20272;-59
2023/08/31 09:29:16;;;;;;;5.78;1.48;;;17.40;99.90;;;;;;5014255;28;20289;-60
2023/08/31 09:31:44;;;;;;;2.63;1.50;;;17.40;99.90;;;;;;5010400;28;20253;-60
2023/08/31 09:34:12;;;;;;;6.60;1.55;;;17.50;99.90;;;;;;5010862;28;20211;-58
2023/08/31 09:36:40;;;;;;;5.35;1.38;;;17.80;99.90;;;;;;5011165;28;20242;-57
2023/08/31 09:39:09;;;;;;;3.58;1.67;;;18.20;99.90;;;;;;5013635;28;20230;-58
2023/08/31 09:41:37;;;;;;;2.83;1.40;;;18.10;99.90;;;;;;5012609;28;20203;-58
2023/08/31 09:44:19;;;;;;;4.05;1.42;;;18.10;99.90;;;;;;5012904;28;20203;-58
2023/08/31 09:46:47;;;;;;;2.38;1.15;;;18.00;99.90;;;;;;5010895;28;20318;-58
2023/08/31 09:49:16;;;;;;;4.30;1.45;;;18.30;99.90;;;;;;5014130;28;20277;-56
2023/08/31 09:51:46;;;;;;;2.70;1.30;;;18.70;99.90;;;;;;5012419;28;20709;-58
2023/08/31 09:54:15;;;;;;;3.17;1.42;;;19.10;99.90;;;;;;5005762;28;20697;-57
2023/08/31 09:56:43;;;;;;;3.00;1.48;;;19.30;99.90;;;;;;5013270;28;20245;-59
2023/08/31 09:59:11;;;;;;;4.50;1.38;;;19.20;99.90;;;;;;5003678;28;20226;-59
2023/08/31 10:01:40;;;;;;;3.85;1.27;;;19.30;99.90;;;;;;5005384;28;20671;-58
2023/08/31 10:04:10;;;;;;;2.47;1.50;;;19.60;99.90;;;;;;5008286;28;20242;-58
2023/08/31 10:06:39;;;;;;;3.83;1.30;;;19.90;99.90;;;;;;4997573;28;20637;-57
2023/08/31 10:09:09;;;;;;;4.00;1.33;;;20.00;99.90;;;;;;5009521;28;20258;-59
2023/08/31 10:11:37;;;;;;;4.32;1.40;;;20.10;99.90;;;;;;5003437;28;20205;-59
2023/08/31 10:14:05;;;;;;;3.75;1.23;;;20.40;99.90;;;;;;5003008;28;20196;-59
2023/08/31 10:16:33;;;;;;;2.40;1.50;;;20.70;99.90;;;;;;5011244;28;20211;-60
2023/08/31 10:19:03;;;;;;;2.47;1.30;;;21.10;99.90;;;;;;4999041;28;20221;-59
2023/08/31 10:21:32;;;;;;;1.85;1.10;;;21.50;99.90;;;;;;5014818;28;20262;-60
2023/08/31 10:24:00;;;;;;;1.52;1.33;;;21.80;99.90;;;;;;5002976;28;20202;-60
2023/08/31 10:26:29;;;;;;;2.17;1.45;;;21.90;99.90;;;;;;4994501;28;20289;-59
2023/08/31 10:28:57;;;;;;;1.15;1.00;;;21.80;99.90;;;;;;5009169;28;20239;-59
2023/08/31 10:33:59;;;;;;;1.92;1.35;;;22.60;99.90;;;;;;5016340;28;20593;-64
2023/08/31 10:36:38;;;;;;;2.28;1.10;;;22.30;99.90;;;;;;5019245;28;20207;-62
2023/08/31 10:39:08;;;;;;;1.85;1.23;;;22.10;99.90;;;;;;5014773;28;20202;-62
2023/08/31 10:41:36;;;;;;;3.58;1.50;;;21.90;99.90;;;;;;5021225;28;20234;-62
2023/08/31 10:44:22;;;;;;;3.05;1.40;;;22.10;99.90;;;;;;5026156;28;20206;-61
2023/08/31 10:46:50;;;;;;;1.92;1.45;;;22.50;99.90;;;;;;5019691;28;20227;-61
2023/08/31 10:49:19;;;;;;;3.10;1.15;;;23.00;99.90;;;;;;5020129;28;20205;-61
2023/08/31 10:51:49;;;;;;;1.52;1.05;;;23.10;99.90;;;;;;5016072;28;20226;-61
2023/08/31 10:54:21;;;;;;;1.33;1.00;;;22.90;99.90;;;;;;5019633;28;20203;-62
2023/08/31 10:57:05;;;;;;;3.53;1.42;;;23.10;99.90;;;;;;5029658;28;20257;-62
2023/08/31 10:59:43;;;;;;;2.10;1.30;;;23.10;99.90;;;;;;5014129;28;20217;-62
2023/08/31 11:02:11;;;;;;;1.13;1.00;;;23.00;99.90;;;;;;5019085;28;20254;-62
2023/08/31 11:04:54;;;;;;;2.00;1.30;;;23.50;99.90;;;;;;5030781;28;20232;-62
2023/08/31 11:07:28;;;;;;;3.65;1.10;;;24.00;99.90;;;;;;5017914;28;20230;-62
2023/08/31 11:10:08;;;;;;;2.33;1.30;;;24.30;99.90;;;;;;5012224;28;20241;-62
2023/08/31 11:12:37;;;;;;;2.58;1.35;;;24.80;99.90;;;;;;5027322;28;20264;-62
2023/08/31 11:15:07;;;;;;;2.25;1.50;;;24.40;99.90;;;;;;5017522;28;20236;-62
2023/08/31 11:17:35;;;;;;;3.75;1.25;;;23.70;99.90;;;;;;5024284;28;20658;-62
2023/08/31 11:20:05;;;;;;;1.90;1.10;;;23.30;99.90;;;;;;5024024;28;20203;-61
2023/08/31 11:22:34;;;;;;;3.50;1.00;;;23.00;99.90;;;;;;5016451;28;20222;-62
2023/08/31 11:25:02;;;;;;;1.52;1.25;;;23.20;99.90;;;;;;5028873;28;20206;-62
2023/08/31 11:27:30;;;;;;;1.80;1.20;;;23.80;99.90;;;;;;5013376;28;20242;-62
2023/08/31 11:29:58;;;;;;;1.83;1.27;;;24.30;99.90;;;;;;5025283;28;20233;-62
2023/08/31 11:32:28;;;;;;;1.10;1.00;;;24.50;99.90;;;;;;5016873;28;20373;-62
2023/08/31 11:34:56;;;;;;;1.83;1.50;;;24.70;99.90;;;;;;5001092;28;20237;-61
2023/08/31 11:37:24;;;;;;;1.45;1.13;;;25.10;99.90;;;;;;5025372;28;20328;-62
2023/08/31 11:39:54;;;;;;;0.90;0.90;;;25.40;99.90;;;;;;5024149;28;20238;-61
2023/08/31 11:42:22;;;;;;;2.50;1.50;;;25.90;99.90;;;;;;5017561;28;20285;-62
2023/08/31 11:44:51;;;;;;;1.40;1.30;;;26.10;99.90;;;;;;5029151;28;20202;-62
2023/08/31 11:47:18;;;;;;;1.02;0.95;;;26.70;99.90;;;;;;5019089;28;20309;-62
2023/08/31 11:49:47;;;;;;;1.52;1.42;;;27.10;99.90;;;;;;5032478;28;20237;-62
2023/08/31 11:52:15;;;;;;;2.28;1.27;;;27.20;97.40;;;;;;5018357;28;20309;-62
2023/08/31 11:54:43;;;;;;;2.30;1.13;;;27.20;96.80;;;;;;5029168;28;20198;-62
2023/08/31 11:57:14;;;;;;;5.63;1.55;;;27.40;98.40;;;;;;5017969;28;20602;-62
2023/08/31 11:59:42;;;;;;;1.75;1.30;;;27.70;96.00;;;;;;5022940;28;20257;-62
2023/08/31 12:02:09;;;;;;;2.78;1.67;;;27.60;94.10;;;;;;5025609;28;20699;-62
2023/08/31 12:04:43;;;;;;;2.80;1.17;;;27.40;93.70;;;;;;5015337;28;20241;-62
2023/08/31 12:07:11;;;;;;;1.33;1.23;;;27.40;94.60;;;;;;5018035;28;20218;-62
2023/08/31 12:09:39;;;;;;;1.08;1.00;;;27.40;92.30;;;;;;5023170;28;20256;-63
2023/08/31 12:12:08;;;;;;;1.73;1.60;;;27.40;94.40;;;;;;5012322;28;20318;-62
2023/08/31 12:14:38;;;;;;;1.98;1.60;;;27.50;91.90;;;;;;5028384;28;20202;-62
2023/08/31 12:17:07;;;;;;;1.33;1.30;;;27.30;91.10;;;;;;5017070;28;20194;-62
2023/08/31 12:19:37;;;;;;;1.38;1.30;;;26.70;91.10;;;;;;5023633;28;20230;-62
2023/08/31 12:22:07;;;;;;;1.40;1.40;;;26.20;94.10;;;;;;5012109;28;20248;-62
2023/08/31 12:24:39;;;;;;;2.80;1.55;;;25.90;93.00;;;;;;5028771;28;20292;-61
2023/08/31 12:27:07;;;;;;;1.55;1.45;;;25.80;93.20;;;;;;5016833;28;20210;-62
2023/08/31 12:29:35;;;;;;;2.63;1.42;;;25.30;93.20;;;;;;5023560;28;20234;-62
2023/08/31 12:32:04;;;;;;;2.97;1.55;;;24.50;93.80;;;;;;5024573;28;20241;-62
2023/08/31 12:34:32;;;;;;;1.38;1.27;;;24.00;95.50;;;;;;5015759;28;20211;-62
2023/08/31 12:37:02;;;;;;;1.20;1.20;;;23.60;97.60;;;;;;5027861;28;20249;-61
2023/08/31 12:39:32;;;;;;;3.50;1.10;;;23.30;99.90;;;;;;5020078;28;20221;-62
2023/08/31 12:42:00;;;;;;;1.48;1.38;;;23.00;99.50;;;;;;5019596;28;20611;-62
2023/08/31 12:44:47;;;;;;;4.40;1.25;;;22.70;99.30;;;;;;5030482;28;20666;-62
2023/08/31 12:47:16;;;;;;;3.35;1.25;;;22.40;99.90;;;;;;5031752;28;20210;-62
2023/08/31 12:49:44;;;;;;;3.67;1.45;;;22.20;99.90;;;;;;5031576;28;20211;-62
2023/08/31 12:52:14;;;;;;;1.73;1.55;;;21.90;99.90;;;;;;5017207;28;20258;-61
2023/08/31 12:54:42;;;;;;;2.80;1.35;;;21.90;99.90;;;;;;5028034;28;20206;-61
2023/08/31 12:57:10;;;;;;;1.25;1.10;;;22.10;99.90;;;;;;5017041;28;20818;-62
2023/08/31 12:59:38;;;;;;;2.28;1.27;;;22.50;99.90;;;;;;5022664;28;20210;-62